In Rescue
 
Open Full Screen Window  High Contrast Mode
Wind Gusting 00 knots
06
May 13, 2021 10:31 AM EDT
Weather Information
Wind Direction
  210 °
Wind Speed
  06 kt (7 mph)
Wind Gust
  00 kt (0 mph)
Altimeter
30.40 in
Visibility
10 SM
Temperature
15° C
59° F
Dewpoint
-06° C
21° F
Humidity
23%
1hr Rain Fall
00.00 in.
24hr Rain Fall
00.00 in.
Sky Condition
Clear
VFR

METAR KLDM 131431Z AUTO 21006KT 10SM CLR 15/M06 A3040 RMK AO2 T01471061

FAA Disclaimer: The data displayed is for advisory purposes only and is not to be used for flight planning or operations.